Time;durP1;ratioP1;P1;durP2;ratioP2;P2;SDS_P1;SDS_P2;PMS_P1;PMS_P2;Temp;Humidity;BMP_temperature;BMP_pressure;BME280_temperature;BME280_humidity;BME280_pressure;Samples;Min_cycle;Max_cycle;Signal;HPM_P1;HPM_P2
2023/01/22 00:00:55;;;;;;;14.90;11.27;;;1.80;99.90;;;;;;4988889;28;20077;-57
2023/01/22 00:03:21;;;;;;;17.63;11.25;;;1.80;99.90;;;;;;4987199;28;20031;-58
2023/01/22 00:05:49;;;;;;;18.42;11.30;;;1.80;99.90;;;;;;4988302;28;20125;-57
2023/01/22 00:08:14;;;;;;;20.42;11.95;;;1.90;99.90;;;;;;4988240;28;20019;-59
2023/01/22 00:10:40;;;;;;;16.38;10.38;;;1.90;99.90;;;;;;4988444;28;20030;-55
2023/01/22 00:13:05;;;;;;;21.23;10.98;;;1.90;99.90;;;;;;4987026;28;20199;-55
2023/01/22 00:15:31;;;;;;;14.68;10.05;;;1.90;99.90;;;;;;4988443;28;20026;-61
2023/01/22 00:17:56;;;;;;;17.63;10.68;;;1.80;99.90;;;;;;4988376;28;20400;-53
2023/01/22 00:20:22;;;;;;;13.52;9.10;;;1.90;99.90;;;;;;4987808;28;20034;-55
2023/01/22 00:22:47;;;;;;;14.88;10.18;;;1.90;99.90;;;;;;4988690;28;20038;-55
2023/01/22 00:25:14;;;;;;;12.48;7.78;;;1.90;99.90;;;;;;4988724;28;20057;-55
2023/01/22 00:27:40;;;;;;;10.82;7.88;;;2.00;99.90;;;;;;4988769;28;20031;-57
2023/01/22 00:30:07;;;;;;;10.93;7.15;;;1.90;99.90;;;;;;4989087;28;20030;-56
2023/01/22 00:32:32;;;;;;;8.85;6.05;;;1.90;99.90;;;;;;4988030;28;20022;-53
2023/01/22 00:34:58;;;;;;;6.95;5.35;;;1.90;99.90;;;;;;4989371;28;20553;-50
2023/01/22 00:37:23;;;;;;;6.82;5.30;;;1.90;99.90;;;;;;4989251;28;20418;-55
2023/01/22 00:39:49;;;;;;;11.35;5.40;;;1.90;99.90;;;;;;4989072;28;20042;-50
2023/01/22 00:42:14;;;;;;;5.93;4.60;;;1.90;99.90;;;;;;4974668;28;20054;-55
2023/01/22 00:44:40;;;;;;;7.75;5.20;;;1.90;99.90;;;;;;4969811;28;20038;-54
2023/01/22 00:47:05;;;;;;;9.70;4.65;;;1.90;99.90;;;;;;4970608;28;20026;-52
2023/01/22 00:49:31;;;;;;;9.30;5.10;;;1.90;99.90;;;;;;4970845;28;20027;-51
2023/01/22 00:51:57;;;;;;;6.03;4.70;;;1.90;99.90;;;;;;4969912;28;20038;-50
2023/01/22 00:54:22;;;;;;;10.23;5.25;;;2.00;99.90;;;;;;4971113;28;20035;-54
2023/01/22 00:56:48;;;;;;;7.35;4.82;;;1.90;99.90;;;;;;4969935;28;20030;-54
2023/01/22 00:59:13;;;;;;;6.72;4.85;;;1.90;99.90;;;;;;4970323;28;20041;-53
2023/01/22 01:01:39;;;;;;;6.03;4.30;;;1.90;99.90;;;;;;4970020;28;20039;-53
2023/01/22 01:04:05;;;;;;;7.30;5.45;;;1.90;99.90;;;;;;4969186;28;20478;-56
2023/01/22 01:06:30;;;;;;;7.38;5.60;;;2.00;99.90;;;;;;4969852;28;20023;-51
2023/01/22 01:08:56;;;;;;;12.23;5.57;;;1.90;99.90;;;;;;4970118;28;20088;-53
2023/01/22 01:11:22;;;;;;;6.35;4.85;;;2.00;99.90;;;;;;4975535;28;20566;-49
2023/01/22 01:13:49;;;;;;;9.30;6.05;;;2.00;99.90;;;;;;4973915;28;20023;-56
2023/01/22 01:16:21;;;;;;;6.25;5.15;;;1.90;99.90;;;;;;4975187;28;20251;-55
2023/01/22 01:18:47;;;;;;;8.85;5.95;;;2.00;99.90;;;;;;4974981;28;20038;-55
2023/01/22 01:21:13;;;;;;;6.65;5.55;;;2.00;99.90;;;;;;4974256;28;20046;-52
2023/01/22 01:23:38;;;;;;;7.10;5.10;;;2.00;99.90;;;;;;4974081;28;20027;-51
2023/01/22 01:26:06;;;;;;;6.88;5.05;;;2.00;99.90;;;;;;4974701;28;20093;-56
2023/01/22 01:28:33;;;;;;;9.40;5.78;;;2.00;99.90;;;;;;4975601;28;20026;-54
2023/01/22 01:31:01;;;;;;;6.30;4.53;;;1.90;99.90;;;;;;4976215;28;20029;-56
2023/01/22 01:33:27;;;;;;;12.60;5.30;;;1.90;99.90;;;;;;4975476;28;20042;-52
2023/01/22 01:36:20;;;;;;;7.53;5.55;;;2.00;99.90;;;;;;4976056;28;20031;-56
2023/01/22 01:38:45;;;;;;;8.82;5.93;;;1.90;99.90;;;;;;4973521;28;20458;-57
2023/01/22 01:41:18;;;;;;;11.32;5.40;;;1.90;99.90;;;;;;4976034;28;20030;-53
2023/01/22 01:43:43;;;;;;;13.52;6.05;;;1.90;99.90;;;;;;4973704;28;20101;-58
2023/01/22 01:46:21;;;;;;;12.98;8.73;;;1.90;99.90;;;;;;4975755;28;20125;-55
2023/01/22 01:48:50;;;;;;;6.55;5.50;;;1.90;99.90;;;;;;4975758;28;20513;-56
2023/01/22 01:51:25;;;;;;;7.28;4.65;;;1.90;99.90;;;;;;4976103;28;20114;-51
2023/01/22 01:53:51;;;;;;;7.57;5.50;;;1.90;99.90;;;;;;4975228;28;20018;-57
2023/01/22 01:56:25;;;;;;;6.55;5.07;;;1.90;99.90;;;;;;4975676;28;20034;-51
2023/01/22 01:58:55;;;;;;;6.85;5.15;;;1.90;99.90;;;;;;4975620;28;20543;-54
2023/01/22 02:01:22;;;;;;;7.28;4.95;;;1.80;99.90;;;;;;4975700;28;20097;-56
2023/01/22 02:03:49;;;;;;;7.40;4.80;;;1.80;99.90;;;;;;4975085;28;20031;-56
2023/01/22 02:06:16;;;;;;;7.03;5.15;;;1.90;99.90;;;;;;4975831;28;20031;-49
2023/01/22 02:08:45;;;;;;;5.53;4.38;;;1.80;99.90;;;;;;4975595;28;20034;-53
2023/01/22 02:11:11;;;;;;;6.95;5.55;;;1.80;99.90;;;;;;4975628;28;20026;-51
2023/01/22 02:13:41;;;;;;;5.57;4.55;;;1.80;99.90;;;;;;4973521;28;20027;-52
2023/01/22 02:16:08;;;;;;;8.20;5.15;;;1.80;99.90;;;;;;4975380;28;20384;-53
2023/01/22 02:18:34;;;;;;;9.38;5.07;;;1.90;99.90;;;;;;4975398;28;20026;-55
2023/01/22 02:21:00;;;;;;;6.00;4.70;;;1.90;99.90;;;;;;4974231;28;20499;-50
2023/01/22 02:23:28;;;;;;;5.90;4.50;;;1.90;99.90;;;;;;4974581;28;20027;-51
2023/01/22 02:25:55;;;;;;;7.70;5.10;;;1.90;99.90;;;;;;4974023;28;20395;-51
2023/01/22 02:28:21;;;;;;;5.75;4.82;;;1.90;99.90;;;;;;4975286;28;20491;-54
2023/01/22 02:30:47;;;;;;;5.32;4.10;;;2.00;99.90;;;;;;4975527;28;20018;-51
2023/01/22 02:33:13;;;;;;;5.80;4.72;;;1.90;99.90;;;;;;4974870;28;20030;-55
2023/01/22 02:35:39;;;;;;;7.40;4.90;;;1.90;99.90;;;;;;4975825;28;20027;-55
2023/01/22 02:38:05;;;;;;;5.68;4.07;;;1.80;99.90;;;;;;4975646;28;20041;-54
2023/01/22 02:40:30;;;;;;;5.40;4.30;;;1.90;99.90;;;;;;4974513;28;20049;-56
2023/01/22 02:42:56;;;;;;;8.02;4.88;;;1.90;99.90;;;;;;4973249;28;20031;-53
2023/01/22 02:45:22;;;;;;;5.15;4.65;;;1.90;99.90;;;;;;4974858;28;20097;-56
2023/01/22 02:47:48;;;;;;;5.43;4.22;;;1.90;99.90;;;;;;4974696;28;20053;-55
2023/01/22 02:50:14;;;;;;;5.15;4.05;;;1.90;99.90;;;;;;4974637;28;20018;-58
2023/01/22 02:52:40;;;;;;;6.72;5.05;;;1.90;99.90;;;;;;4972709;28;20376;-55
2023/01/22 02:55:06;;;;;;;6.30;4.45;;;2.00;99.90;;;;;;4973379;28;20034;-50
2023/01/22 02:57:32;;;;;;;5.30;3.70;;;1.90;99.90;;;;;;4974540;28;20027;-52
2023/01/22 02:59:57;;;;;;;6.70;4.20;;;1.90;99.90;;;;;;4974639;28;20030;-57
2023/01/22 03:02:24;;;;;;;4.80;4.03;;;2.00;99.90;;;;;;4973820;28;20023;-56
2023/01/22 03:04:50;;;;;;;5.60;4.00;;;1.90;99.90;;;;;;4974041;28;20018;-57
2023/01/22 03:07:17;;;;;;;4.90;3.88;;;2.00;99.90;;;;;;4974390;28;20023;-52
2023/01/22 03:09:43;;;;;;;3.95;3.55;;;1.90;99.90;;;;;;4974427;28;20499;-54
2023/01/22 03:12:08;;;;;;;5.47;4.15;;;1.90;99.90;;;;;;4973738;28;20538;-56
2023/01/22 03:22:47;;;;;;;4.13;3.63;;;1.90;99.90;;;;;;4973554;28;20073;-56
2023/01/22 03:25:13;;;;;;;6.93;4.53;;;1.90;99.90;;;;;;4974056;28;20031;-55
2023/01/22 03:28:07;;;;;;;7.90;4.00;;;1.90;99.90;;;;;;4973908;28;20057;-52
2023/01/22 03:30:24;;;;;;;4.53;3.70;;;1.90;99.90;;;;;;4973963;28;20027;-57
2023/01/22 03:32:49;;;;;;;4.30;3.90;;;1.90;99.90;;;;;;4972846;28;20113;-54
2023/01/22 03:35:15;;;;;;;4.30;3.85;;;1.90;99.90;;;;;;4974004;28;20031;-54
2023/01/22 03:37:40;;;;;;;4.25;3.85;;;1.90;99.90;;;;;;4973654;28;20030;-55
2023/01/22 03:40:06;;;;;;;4.03;3.63;;;1.90;99.90;;;;;;4972445;28;20166;-49
2023/01/22 03:42:31;;;;;;;4.15;3.47;;;1.90;99.90;;;;;;4971670;28;20415;-52
2023/01/22 03:44:57;;;;;;;4.22;3.53;;;1.90;99.90;;;;;;4973678;28;20037;-55
2023/01/22 03:47:22;;;;;;;5.82;3.88;;;1.90;99.90;;;;;;4973629;28;20566;-56
2023/01/22 03:49:48;;;;;;;4.72;3.20;;;1.90;99.90;;;;;;4973456;28;20102;-49
2023/01/22 03:52:13;;;;;;;5.28;3.80;;;1.90;99.90;;;;;;4972742;28;20025;-51
2023/01/22 03:54:39;;;;;;;4.85;3.00;;;1.90;99.90;;;;;;4973538;28;20045;-55
2023/01/22 03:57:04;;;;;;;3.92;3.53;;;1.80;99.90;;;;;;4972234;28;20037;-51
2023/01/22 03:59:30;;;;;;;3.50;3.15;;;1.90;99.90;;;;;;4973611;28;20031;-53
2023/01/22 04:01:55;;;;;;;3.90;3.17;;;1.90;99.90;;;;;;4972760;28;20376;-52
2023/01/22 04:04:21;;;;;;;3.92;3.45;;;1.90;99.90;;;;;;4973275;28;20038;-55
2023/01/22 04:06:46;;;;;;;4.78;3.63;;;1.90;99.90;;;;;;4971971;28;20054;-55
2023/01/22 04:09:13;;;;;;;3.67;3.33;;;1.80;99.90;;;;;;4973209;28;20030;-54
2023/01/22 04:11:38;;;;;;;4.22;3.38;;;1.90;99.90;;;;;;4973357;28;20506;-56
2023/01/22 04:14:03;;;;;;;5.78;3.95;;;1.90;99.90;;;;;;4972629;28;20034;-51
2023/01/22 04:16:29;;;;;;;3.95;3.55;;;1.80;99.90;;;;;;4972193;28;20054;-54
2023/01/22 04:18:55;;;;;;;4.57;3.80;;;1.90;99.90;;;;;;4972953;28;20031;-51
2023/01/22 04:21:20;;;;;;;7.25;3.65;;;1.80;99.90;;;;;;4973073;28;20111;-58
2023/01/22 04:23:46;;;;;;;3.78;3.10;;;1.80;99.90;;;;;;4972368;28;20522;-57
2023/01/22 04:26:11;;;;;;;4.53;3.80;;;1.90;99.90;;;;;;4972999;28;20027;-56
2023/01/22 04:28:36;;;;;;;4.55;4.13;;;1.90;99.90;;;;;;4973015;28;20022;-53
2023/01/22 04:31:03;;;;;;;5.85;3.88;;;1.90;99.90;;;;;;4973039;28;20050;-54
2023/01/22 04:33:29;;;;;;;3.60;3.20;;;1.90;99.90;;;;;;4972241;28;20391;-53
2023/01/22 04:35:54;;;;;;;3.42;3.13;;;1.90;99.90;;;;;;4972945;28;20043;-51
2023/01/22 04:38:21;;;;;;;3.53;3.22;;;1.90;99.90;;;;;;4972750;28;20169;-51
2023/01/22 04:40:46;;;;;;;3.80;3.50;;;1.80;99.90;;;;;;4972933;28;20038;-53
2023/01/22 04:43:12;;;;;;;3.40;3.10;;;1.80;99.90;;;;;;4971076;28;20039;-55
2023/01/22 04:45:37;;;;;;;4.43;4.03;;;1.80;99.90;;;;;;4972049;28;20512;-54
2023/01/22 04:48:03;;;;;;;4.55;4.15;;;1.90;99.90;;;;;;4972758;28;20018;-48
2023/01/22 04:50:31;;;;;;;3.50;3.20;;;1.80;99.90;;;;;;4971445;28;20122;-54
2023/01/22 04:52:56;;;;;;;4.15;3.40;;;1.90;99.90;;;;;;4972049;28;20058;-49
2023/01/22 04:55:24;;;;;;;4.07;3.40;;;1.90;99.90;;;;;;4972564;28;20074;-55
2023/01/22 04:57:49;;;;;;;4.22;3.40;;;1.90;99.90;;;;;;4972615;28;20033;-51
2023/01/22 05:00:15;;;;;;;8.88;3.28;;;1.90;99.90;;;;;;4972569;28;20027;-55
2023/01/22 05:02:41;;;;;;;5.20;3.28;;;1.90;99.90;;;;;;4971837;28;20062;-55
2023/01/22 05:05:07;;;;;;;3.67;3.22;;;1.90;99.90;;;;;;4972543;28;20081;-58
2023/01/22 05:07:33;;;;;;;3.95;3.60;;;1.90;99.90;;;;;;4972746;28;20487;-55
2023/01/22 05:09:58;;;;;;;4.78;3.35;;;1.90;99.90;;;;;;4971139;28;20086;-54
2023/01/22 05:12:24;;;;;;;3.92;3.63;;;1.90;99.90;;;;;;4971930;28;20026;-51
2023/01/22 05:14:49;;;;;;;4.43;3.40;;;1.80;99.90;;;;;;4972541;28;20027;-49
2023/01/22 05:17:15;;;;;;;3.90;3.47;;;1.90;99.90;;;;;;4972381;28;20031;-56
2023/01/22 05:19:41;;;;;;;3.20;2.90;;;1.90;99.90;;;;;;4972351;28;20042;-55
2023/01/22 05:22:06;;;;;;;3.60;3.30;;;1.90;99.90;;;;;;4971877;28;20227;-49
2023/01/22 05:24:32;;;;;;;2.60;2.40;;;1.90;99.90;;;;;;4971496;28;20023;-52
2023/01/22 05:26:57;;;;;;;3.13;2.92;;;1.90;99.90;;;;;;4973015;28;20034;-54
2023/01/22 05:29:24;;;;;;;3.65;3.33;;;1.90;99.90;;;;;;4974730;28;20023;-53
2023/01/22 05:31:55;;;;;;;3.60;3.25;;;1.90;99.90;;;;;;4971853;28;20031;-48
2023/01/22 05:34:21;;;;;;;2.90;2.60;;;1.90;99.90;;;;;;4972383;28;20023;-47
2023/01/22 05:36:47;;;;;;;3.65;3.08;;;2.00;99.90;;;;;;4972454;28;20038;-51
2023/01/22 05:39:13;;;;;;;4.78;3.40;;;1.90;99.90;;;;;;4996210;23;20510;-54
2023/01/22 05:41:38;;;;;;;3.60;3.30;;;1.90;99.90;;;;;;4989457;28;20348;-57
2023/01/22 05:44:05;;;;;;;3.95;3.42;;;1.90;99.90;;;;;;4987771;28;20125;-54
2023/01/22 05:46:30;;;;;;;4.15;3.20;;;2.00;99.90;;;;;;4991287;28;20115;-57
2023/01/22 05:48:57;;;;;;;3.28;2.70;;;2.00;99.90;;;;;;4991691;28;20274;-57
2023/01/22 05:51:23;;;;;;;3.22;2.95;;;1.90;99.90;;;;;;4990091;28;20465;-58
2023/01/22 05:53:49;;;;;;;3.15;2.85;;;2.00;99.90;;;;;;4990930;28;20100;-59
2023/01/22 05:56:15;;;;;;;5.60;3.28;;;1.90;99.90;;;;;;4992468;28;20026;-51
2023/01/22 05:58:40;;;;;;;3.25;3.05;;;1.90;99.90;;;;;;4993824;28;20046;-56
2023/01/22 06:01:06;;;;;;;3.35;2.50;;;2.00;99.90;;;;;;4993970;28;20467;-56
2023/01/22 06:03:31;;;;;;;3.30;3.00;;;2.00;99.90;;;;;;4993258;28;20030;-56
2023/01/22 06:06:04;;;;;;;3.38;3.05;;;2.10;99.90;;;;;;4995112;28;20084;-56
2023/01/22 06:08:31;;;;;;;3.13;2.92;;;2.00;99.90;;;;;;4995615;28;20037;-59
2023/01/22 06:11:06;;;;;;;3.75;3.35;;;2.00;99.90;;;;;;4995452;28;20029;-59
2023/01/22 06:13:32;;;;;;;3.85;3.42;;;2.10;99.90;;;;;;4993557;28;20031;-58
2023/01/22 06:15:58;;;;;;;3.60;3.30;;;2.10;99.90;;;;;;4995157;28;20031;-55
2023/01/22 06:18:24;;;;;;;3.17;2.90;;;2.10;99.90;;;;;;4995686;28;20055;-57
2023/01/22 06:20:50;;;;;;;3.63;3.17;;;2.10;99.90;;;;;;4995761;28;20034;-57
2023/01/22 06:23:16;;;;;;;3.38;3.08;;;2.10;99.90;;;;;;4994983;28;20031;-56
2023/01/22 06:25:42;;;;;;;2.97;2.78;;;2.00;99.90;;;;;;4995168;28;20410;-57
2023/01/22 06:28:08;;;;;;;3.50;3.20;;;2.10;99.90;;;;;;4995442;28;20026;-57
2023/01/22 06:30:35;;;;;;;2.92;2.72;;;2.10;99.90;;;;;;4993695;28;20026;-52
2023/01/22 06:33:00;;;;;;;3.33;3.03;;;2.10;99.90;;;;;;4993778;28;20397;-56
2023/01/22 06:35:26;;;;;;;3.28;2.97;;;2.10;99.90;;;;;;4993070;28;20113;-55
2023/01/22 06:37:51;;;;;;;4.90;3.03;;;2.10;99.90;;;;;;4994544;28;20038;-56
2023/01/22 06:40:17;;;;;;;2.90;2.70;;;2.10;99.90;;;;;;4993193;28;20030;-54
2023/01/22 06:42:43;;;;;;;3.35;3.00;;;2.10;99.90;;;;;;4992083;28;20084;-51
2023/01/22 06:45:08;;;;;;;3.47;2.85;;;2.10;99.90;;;;;;4994344;28;20038;-55
2023/01/22 06:47:34;;;;;;;4.03;3.38;;;2.10;99.90;;;;;;4994634;28;20402;-57
2023/01/22 06:49:59;;;;;;;3.08;2.83;;;2.10;99.90;;;;;;4994559;28;20042;-55
2023/01/22 06:52:25;;;;;;;3.20;2.90;;;2.10;99.90;;;;;;4994988;28;20022;-56
2023/01/22 06:54:50;;;;;;;2.75;2.60;;;2.10;99.90;;;;;;5008024;28;20222;-55
2023/01/22 06:57:16;;;;;;;3.72;3.42;;;2.10;99.90;;;;;;4995965;28;20025;-58
2023/01/22 06:59:41;;;;;;;3.65;3.13;;;2.10;99.90;;;;;;4994478;28;20034;-56
2023/01/22 07:02:14;;;;;;;4.55;3.63;;;2.10;99.90;;;;;;4993695;28;20026;-56
2023/01/22 07:04:39;;;;;;;3.35;3.08;;;2.10;99.90;;;;;;4992967;28;20057;-58
2023/01/22 07:07:05;;;;;;;3.90;3.50;;;2.20;99.90;;;;;;4991867;28;20546;-57
2023/01/22 07:09:30;;;;;;;3.72;3.42;;;2.20;99.90;;;;;;4993910;28;20030;-59
2023/01/22 07:11:57;;;;;;;3.38;3.08;;;2.20;99.90;;;;;;4992952;28;20549;-54
2023/01/22 07:14:22;;;;;;;3.63;3.33;;;2.20;99.90;;;;;;4993682;28;20413;-53
2023/01/22 07:16:48;;;;;;;3.45;3.15;;;2.20;99.90;;;;;;4993591;28;20109;-58
2023/01/22 07:19:13;;;;;;;3.28;3.00;;;2.20;99.90;;;;;;4993571;28;20034;-59
2023/01/22 07:21:39;;;;;;;3.75;3.30;;;2.10;99.90;;;;;;4993422;28;20118;-58
2023/01/22 07:24:05;;;;;;;3.67;3.38;;;2.10;99.90;;;;;;4992807;28;20018;-58
2023/01/22 07:26:30;;;;;;;4.07;3.33;;;2.10;99.90;;;;;;4993255;28;20030;-56
2023/01/22 07:28:56;;;;;;;4.85;3.28;;;2.10;99.90;;;;;;4993314;28;20026;-57
2023/01/22 07:31:21;;;;;;;3.70;3.40;;;2.20;99.90;;;;;;4993214;28;20037;-58
2023/01/22 07:33:47;;;;;;;3.70;3.35;;;2.20;99.90;;;;;;4991247;28;20134;-55
2023/01/22 07:36:12;;;;;;;4.10;3.67;;;2.20;99.90;;;;;;4992977;28;20081;-54
2023/01/22 07:38:38;;;;;;;3.33;3.03;;;2.20;99.90;;;;;;4991804;28;20030;-53
2023/01/22 07:41:05;;;;;;;4.75;3.30;;;2.10;99.90;;;;;;4991842;28;20034;-57
2023/01/22 07:43:31;;;;;;;3.13;2.88;;;2.20;99.90;;;;;;4991099;28;20026;-58
2023/01/22 07:46:00;;;;;;;3.90;3.38;;;2.20;99.90;;;;;;4992838;28;20029;-56
2023/01/22 07:48:25;;;;;;;3.97;3.42;;;2.10;99.90;;;;;;4993254;28;20019;-57
2023/01/22 07:50:51;;;;;;;3.17;2.97;;;2.20;99.90;;;;;;4992971;28;20039;-58
2023/01/22 07:53:17;;;;;;;3.20;3.00;;;2.20;99.90;;;;;;4992251;28;20022;-54
2023/01/22 07:55:42;;;;;;;4.07;3.70;;;2.20;99.90;;;;;;4992804;28;20030;-58
2023/01/22 07:58:10;;;;;;;3.50;3.15;;;2.20;99.90;;;;;;4991542;28;20498;-57
2023/01/22 08:00:36;;;;;;;3.90;3.40;;;2.20;99.90;;;;;;4990980;28;20033;-56
2023/01/22 08:03:06;;;;;;;3.72;3.38;;;2.20;99.90;;;;;;4991720;28;20031;-57
2023/01/22 08:05:31;;;;;;;4.38;3.58;;;2.20;99.90;;;;;;4992369;28;20109;-60
2023/01/22 08:07:57;;;;;;;3.42;3.13;;;2.30;99.90;;;;;;4992649;28;20449;-58
2023/01/22 08:10:23;;;;;;;4.00;3.63;;;2.30;99.90;;;;;;4992558;28;20081;-55
2023/01/22 08:12:48;;;;;;;3.80;3.40;;;2.20;99.90;;;;;;4991728;28;20026;-57
2023/01/22 08:15:14;;;;;;;4.30;3.38;;;2.20;99.90;;;;;;4992506;28;20026;-60
2023/01/22 08:17:40;;;;;;;3.67;3.30;;;2.30;99.90;;;;;;4992381;28;20490;-54
2023/01/22 08:20:06;;;;;;;3.30;3.10;;;2.30;99.90;;;;;;4991547;28;20076;-57
2023/01/22 08:22:32;;;;;;;3.58;3.13;;;2.30;99.90;;;;;;4991706;28;20025;-58
2023/01/22 08:24:57;;;;;;;4.63;4.13;;;2.30;99.90;;;;;;4991060;28;20022;-58
2023/01/22 08:27:23;;;;;;;3.90;3.38;;;2.30;99.90;;;;;;4992173;28;20031;-56
2023/01/22 08:29:48;;;;;;;3.67;3.38;;;2.30;99.90;;;;;;4992172;28;20027;-56
2023/01/22 08:32:15;;;;;;;4.28;3.88;;;2.30;99.90;;;;;;4991561;28;20033;-58
2023/01/22 08:34:41;;;;;;;3.90;3.60;;;2.30;99.90;;;;;;4992691;28;20624;-57
2023/01/22 08:37:06;;;;;;;4.90;3.33;;;2.40;99.90;;;;;;4990655;28;20034;-57
2023/01/22 08:39:32;;;;;;;3.80;3.40;;;2.30;99.90;;;;;;4992378;28;20042;-54
2023/01/22 08:41:57;;;;;;;5.65;3.95;;;2.40;99.90;;;;;;4990229;28;20050;-56
2023/01/22 08:44:24;;;;;;;4.00;3.60;;;2.30;99.90;;;;;;4992933;28;20027;-57
2023/01/22 08:46:49;;;;;;;4.25;3.53;;;2.30;99.90;;;;;;4990714;28;20441;-54
2023/01/22 08:49:16;;;;;;;6.10;4.00;;;2.40;99.90;;;;;;4992422;28;20022;-58
2023/01/22 08:51:43;;;;;;;8.30;3.85;;;2.50;99.90;;;;;;4990976;28;20022;-56
2023/01/22 08:54:08;;;;;;;5.88;4.07;;;2.40;99.90;;;;;;4992185;28;20026;-58
2023/01/22 08:56:34;;;;;;;8.82;4.32;;;2.50;99.90;;;;;;4992190;28;20087;-56
2023/01/22 08:59:05;;;;;;;3.97;3.58;;;2.50;99.90;;;;;;4992485;28;20023;-58
2023/01/22 09:01:31;;;;;;;5.00;4.60;;;2.60;99.90;;;;;;4992225;28;20434;-58
2023/01/22 09:03:57;;;;;;;6.18;4.75;;;2.50;99.90;;;;;;4990264;28;20458;-53
2023/01/22 09:06:22;;;;;;;4.30;3.60;;;2.50;99.90;;;;;;4987065;28;20066;-59
2023/01/22 09:08:48;;;;;;;7.20;4.28;;;2.60;99.90;;;;;;4991974;28;20084;-58
2023/01/22 09:11:14;;;;;;;5.80;4.35;;;2.60;99.90;;;;;;4990359;28;20031;-59
2023/01/22 09:13:39;;;;;;;3.97;3.58;;;2.60;99.90;;;;;;4990091;28;20117;-56
2023/01/22 09:16:09;;;;;;;5.20;4.47;;;2.60;99.90;;;;;;4991911;28;20162;-59
2023/01/22 09:18:35;;;;;;;5.43;3.88;;;2.70;99.90;;;;;;4990552;28;20214;-59
2023/01/22 09:21:01;;;;;;;4.25;3.85;;;2.70;99.90;;;;;;4992055;28;20031;-58
2023/01/22 09:23:26;;;;;;;4.40;3.67;;;2.70;99.90;;;;;;4991131;28;20034;-58
2023/01/22 09:25:52;;;;;;;4.57;3.60;;;2.70;99.90;;;;;;4990481;28;20022;-58
2023/01/22 09:28:17;;;;;;;4.15;3.75;;;2.70;99.90;;;;;;4990202;28;20545;-58
2023/01/22 09:30:43;;;;;;;4.03;3.70;;;2.70;99.90;;;;;;4991922;28;20125;-59
2023/01/22 09:33:08;;;;;;;5.18;4.32;;;2.70;99.90;;;;;;4994523;28;20035;-58
2023/01/22 09:35:34;;;;;;;4.72;3.90;;;2.70;99.90;;;;;;4995272;28;20030;-58
2023/01/22 09:38:02;;;;;;;4.03;3.60;;;2.80;99.90;;;;;;4995189;28;20109;-57
2023/01/22 09:40:31;;;;;;;3.95;3.55;;;2.90;99.90;;;;;;4995249;28;20035;-57
2023/01/22 09:43:17;;;;;;;4.22;3.90;;;2.90;99.90;;;;;;4994414;28;20030;-59
2023/01/22 09:45:43;;;;;;;3.20;3.00;;;2.80;99.90;;;;;;4993893;28;20026;-58
2023/01/22 09:48:14;;;;;;;3.90;3.38;;;2.80;99.90;;;;;;4996118;28;20073;-59
2023/01/22 09:50:41;;;;;;;3.75;3.33;;;2.80;99.90;;;;;;4996316;28;20053;-58
2023/01/22 09:53:12;;;;;;;4.00;3.67;;;2.90;99.90;;;;;;4992934;28;20105;-59
2023/01/22 09:55:43;;;;;;;4.63;3.67;;;3.00;99.90;;;;;;4995131;28;20398;-58
2023/01/22 09:58:14;;;;;;;4.40;4.00;;;3.00;99.90;;;;;;4995228;28;20085;-59
2023/01/22 10:00:43;;;;;;;4.25;3.85;;;3.10;99.90;;;;;;4995264;28;20022;-57
2023/01/22 10:03:25;;;;;;;4.32;3.70;;;3.20;99.90;;;;;;4994079;28;20031;-57
2023/01/22 10:05:56;;;;;;;4.35;3.95;;;3.10;99.90;;;;;;4994999;28;20113;-59
2023/01/22 10:08:31;;;;;;;4.20;3.85;;;3.20;99.90;;;;;;4994672;28;20050;-57
2023/01/22 10:10:59;;;;;;;4.40;3.87;;;3.10;99.90;;;;;;4993724;28;20031;-56
2023/01/22 10:13:32;;;;;;;4.65;3.75;;;3.10;99.90;;;;;;4994444;28;20538;-59
2023/01/22 10:15:57;;;;;;;3.80;3.50;;;3.20;99.90;;;;;;4994376;28;20065;-57
2023/01/22 10:18:29;;;;;;;4.80;4.15;;;3.20;99.90;;;;;;4992074;28;20066;-59
2023/01/22 10:20:56;;;;;;;3.90;3.60;;;3.20;99.90;;;;;;4995926;28;20034;-59
2023/01/22 10:23:24;;;;;;;5.30;4.70;;;3.20;99.90;;;;;;4993641;28;20514;-55
2023/01/22 10:25:56;;;;;;;3.70;3.25;;;3.10;99.90;;;;;;4994410;28;20048;-55
2023/01/22 10:28:27;;;;;;;4.45;4.05;;;3.10;99.90;;;;;;4994060;28;20026;-58
2023/01/22 10:30:57;;;;;;;4.55;3.60;;;3.20;99.90;;;;;;4992523;28;20434;-59
2023/01/22 10:33:24;;;;;;;3.92;3.60;;;3.20;99.90;;;;;;4992724;28;20093;-57
2023/01/22 10:35:53;;;;;;;4.38;3.97;;;3.30;99.90;;;;;;4993674;28;20109;-60
2023/01/22 10:38:27;;;;;;;6.45;4.03;;;3.40;99.90;;;;;;4992379;28;20123;-58
2023/01/22 10:40:58;;;;;;;6.03;4.03;;;3.40;99.90;;;;;;4993581;28;20568;-57
2023/01/22 10:43:36;;;;;;;4.93;4.18;;;3.50;99.90;;;;;;4992368;28;20053;-59
2023/01/22 10:46:22;;;;;;;3.97;3.65;;;3.50;99.90;;;;;;4978710;28;20041;-57
2023/01/22 10:49:04;;;;;;;;;;;3.40;99.90;;;;;;4994529;28;20072;-59
2023/01/22 10:51:44;;;;;;;6.07;4.05;;;3.30;99.90;;;;;;4992426;28;19905;-57
2023/01/22 10:54:28;;;;;;;3.80;3.50;;;3.30;99.90;;;;;;4993030;28;20034;-58
2023/01/22 10:57:21;;;;;;;3.92;3.63;;;3.30;99.90;;;;;;4993205;28;20023;-58
2023/01/22 11:00:24;;;;;;;4.40;3.70;;;3.30;99.90;;;;;;4992814;28;20398;-57
2023/01/22 11:02:50;;;;;;;4.30;3.70;;;3.40;99.90;;;;;;4943848;28;20125;-59
2023/01/22 11:05:21;;;;;;;4.25;3.65;;;3.30;99.90;;;;;;4989980;28;20157;-56
2023/01/22 11:07:59;;;;;;;4.35;4.00;;;3.40;99.90;;;;;;4991334;28;20018;-58
2023/01/22 11:10:42;;;;;;;3.97;3.47;;;3.40;99.90;;;;;;4990992;28;20026;-57
2023/01/22 11:13:27;;;;;;;4.10;3.42;;;3.40;99.90;;;;;;4990977;28;20033;-59
2023/01/22 11:16:03;;;;;;;3.30;2.95;;;3.40;99.90;;;;;;4991186;28;20528;-61
2023/01/22 11:18:35;;;;;;;3.83;3.53;;;3.30;99.90;;;;;;4974212;28;20067;-58
2023/01/22 11:21:09;;;;;;;6.22;4.10;;;3.30;99.90;;;;;;4992155;28;20403;-57
2023/01/22 11:23:55;;;;;;;3.67;3.38;;;3.30;99.90;;;;;;4992980;28;20041;-60
2023/01/22 11:26:51;;;;;;;3.50;3.30;;;3.40;99.90;;;;;;4991157;28;20410;-58
2023/01/22 11:29:44;;;;;;;3.58;3.28;;;3.40;99.90;;;;;;4992414;28;20034;-54
2023/01/22 11:32:30;;;;;;;3.35;3.15;;;3.40;99.90;;;;;;4991706;28;20036;-56
2023/01/22 11:34:56;;;;;;;4.20;3.88;;;3.50;99.90;;;;;;4992527;28;20037;-59
2023/01/22 11:37:48;;;;;;;3.75;3.35;;;3.40;99.90;;;;;;4992016;28;20030;-56
2023/01/22 11:40:24;;;;;;;3.75;3.40;;;3.40;99.90;;;;;;4980290;28;20125;-57
2023/01/22 11:42:53;;;;;;;3.60;3.30;;;3.50;99.90;;;;;;4991737;28;20046;-58
2023/01/22 11:45:41;;;;;;;4.03;3.72;;;3.50;99.90;;;;;;4992510;28;20037;-55
2023/01/22 11:48:12;;;;;;;3.97;3.40;;;3.50;99.90;;;;;;4991238;28;20106;-54
2023/01/22 11:50:40;;;;;;;3.83;3.53;;;3.60;99.90;;;;;;4992819;28;20026;-58
2023/01/22 11:53:51;;;;;;;3.78;3.47;;;3.50;99.90;;;;;;4991618;28;20108;-55
2023/01/22 11:56:44;;;;;;;3.28;3.03;;;3.50;99.90;;;;;;4969562;28;20536;-60
2023/01/22 11:59:31;;;;;;;3.80;3.45;;;3.60;99.90;;;;;;4990927;28;20030;-59
2023/01/22 12:02:24;;;;;;;3.60;3.30;;;3.60;99.90;;;;;;4991156;28;20034;-61
2023/01/22 12:05:24;;;;;;;4.10;3.10;;;3.50;99.90;;;;;;4991004;28;20430;-55
2023/01/22 12:07:56;;;;;;;3.33;3.13;;;3.50;99.90;;;;;;4978113;28;20031;-58
2023/01/22 12:10:54;;;;;;;3.63;3.33;;;3.50;99.90;;;;;;4990085;28;20026;-57
2023/01/22 12:13:44;;;;;;;4.25;3.55;;;3.50;99.90;;;;;;4991509;28;20109;-57
2023/01/22 12:16:15;;;;;;;3.60;3.30;;;3.50;99.90;;;;;;4990841;28;20034;-61
2023/01/22 12:18:58;;;;;;;3.08;2.88;;;3.50;99.90;;;;;;4991414;28;20084;-56
2023/01/22 12:21:50;;;;;;;3.30;3.00;;;3.60;99.90;;;;;;4991272;28;20018;-59
2023/01/22 12:24:27;;;;;;;3.35;3.05;;;3.60;99.90;;;;;;4991064;28;20032;-58
2023/01/22 12:27:06;;;;;;;3.50;3.20;;;3.60;99.90;;;;;;4990594;28;20100;-58
2023/01/22 12:29:54;;;;;;;3.58;3.28;;;3.50;99.90;;;;;;4990944;28;20030;-60
2023/01/22 12:32:21;;;;;;;2.80;2.60;;;3.50;99.90;;;;;;4990045;28;20018;-56
2023/01/22 12:35:04;;;;;;;3.42;2.90;;;3.40;99.90;;;;;;4992520;28;20046;-59
2023/01/22 12:37:57;;;;;;;4.72;3.70;;;3.30;99.90;;;;;;4990868;28;20352;-59
2023/01/22 12:40:36;;;;;;;3.97;3.63;;;3.40;99.90;;;;;;4985887;28;20068;-60
2023/01/22 12:43:04;;;;;;;4.35;3.63;;;3.50;99.90;;;;;;4991463;28;20041;-58
2023/01/22 12:45:52;;;;;;;5.05;3.70;;;3.40;99.90;;;;;;4992276;28;20069;-59
2023/01/22 12:48:28;;;;;;;3.80;3.50;;;3.40;99.90;;;;;;4992128;28;20435;-57
2023/01/22 12:50:56;;;;;;;4.10;3.70;;;3.60;99.90;;;;;;4992031;28;20398;-63
2023/01/22 12:53:33;;;;;;;3.28;3.08;;;3.70;99.90;;;;;;4988456;28;20023;-60
2023/01/22 12:56:09;;;;;;;4.05;3.65;;;3.70;99.90;;;;;;4992272;28;20443;-58
2023/01/22 12:58:40;;;;;;;5.30;3.28;;;3.60;99.90;;;;;;4991367;28;20026;-59
2023/01/22 13:01:10;;;;;;;4.32;3.25;;;3.60;99.90;;;;;;4991380;28;20533;-59
2023/01/22 13:03:39;;;;;;;4.07;3.35;;;3.70;99.90;;;;;;4991803;28;20023;-57
2023/01/22 13:06:20;;;;;;;3.47;3.15;;;3.60;99.90;;;;;;4993536;28;20026;-58
2023/01/22 13:08:45;;;;;;;3.50;3.25;;;3.70;99.90;;;;;;4996395;28;20104;-59
2023/01/22 13:11:28;;;;;;;4.15;3.85;;;3.60;99.90;;;;;;4991869;28;20113;-60
2023/01/22 13:14:16;;;;;;;3.45;3.17;;;3.60;99.90;;;;;;4994052;28;20394;-61